Time,TemperatureF,DewpointF,PressureIn,WindDirection,WindDirectionDegrees,WindSpeedMPH,WindSpeedGustMPH,Humidity,HourlyPrecipIn,Conditions,Clouds,dailyrainin,SoftwareType,DateUTC
2013-02-08 00:04:00,51.7,37.0,29.83,SSE,165,5.0,11.0,57,0.00,,,0.00,weatherlink.com 1.10,2013-02-08 05:04:00,
2013-02-08 00:19:00,51.0,37.0,29.82,SSE,155,7.0,12.0,59,0.00,,,0.00,weatherlink.com 1.10,2013-02-08 05:19:00,
2013-02-08 00:34:00,50.9,37.0,29.82,SE,145,8.0,12.0,60,0.00,,,0.00,weatherlink.com 1.10,2013-02-08 05:34:00,
2013-02-08 00:49:00,50.9,38.0,29.82,SSE,163,6.0,19.0,62,0.00,,,0.00,weatherlink.com 1.10,2013-02-08 05:49:00,
2013-02-08 01:04:00,50.8,39.0,29.82,SSW,194,6.0,12.0,64,0.00,,,0.00,weatherlink.com 1.10,2013-02-08 06:04:00,
2013-02-08 01:19:00,50.8,40.0,29.82,SE,135,5.0,10.0,67,0.00,,,0.00,weatherlink.com 1.10,2013-02-08 06:19:00,
2013-02-08 01:34:00,50.6,41.0,29.81,South,180,4.0,12.0,69,0.00,,,0.00,weatherlink.com 1.10,2013-02-08 06:34:00,
2013-02-08 01:49:00,50.5,41.0,29.81,SSW,207,3.0,11.0,71,0.00,,,0.00,weatherlink.com 1.10,2013-02-08 06:49:00,
2013-02-08 02:04:00,50.4,42.0,29.81,South,186,3.0,13.0,72,0.00,,,0.00,weatherlink.com 1.10,2013-02-08 07:04:00,
2013-02-08 02:19:00,50.4,42.0,29.81,SSW,205,4.0,10.0,74,0.00,,,0.00,weatherlink.com 1.10,2013-02-08 07:19:00,
2013-02-08 02:34:00,50.2,43.0,29.81,SSW,207,4.0,11.0,77,0.00,,,0.00,weatherlink.com 1.10,2013-02-08 07:34:00,
2013-02-08 02:49:00,49.1,45.0,29.80,South,181,5.0,8.0,84,0.01,,,0.01,weatherlink.com 1.10,2013-02-08 07:49:00,
2013-02-08 03:04:00,48.3,45.0,29.80,SSW,198,5.0,10.0,88,0.01,,,0.01,weatherlink.com 1.10,2013-02-08 08:04:00,
2013-02-08 03:19:00,47.7,45.0,29.80,SSW,201,7.0,8.0,91,0.02,,,0.02,weatherlink.com 1.10,2013-02-08 08:19:00,
2013-02-08 03:34:00,47.3,45.0,29.80,SW,214,6.0,8.0,93,0.02,,,0.02,weatherlink.com 1.10,2013-02-08 08:34:00,
2013-02-08 03:50:00,47.1,46.0,29.80,WSW,242,3.0,7.0,95,0.01,,,0.02,weatherlink.com 1.10,2013-02-08 08:50:00,
2013-02-08 04:05:00,47.2,46.0,29.80,SW,219,2.0,9.0,96,0.01,,,0.02,weatherlink.com 1.10,2013-02-08 09:05:00,
2013-02-08 04:20:00,47.2,46.0,29.81,West,273,3.0,10.0,96,0.01,,,0.03,weatherlink.com 1.10,2013-02-08 09:20:00,
2013-02-08 04:35:00,46.0,45.0,29.82,NW,304,5.0,10.0,96,0.03,,,0.05,weatherlink.com 1.10,2013-02-08 09:35:00,
2013-02-08 04:50:00,44.9,44.0,29.83,WNW,285,1.0,6.0,95,0.04,,,0.06,weatherlink.com 1.10,2013-02-08 09:50:00,
2013-02-08 05:05:00,43.8,43.0,29.84,NW,310,2.0,10.0,95,0.05,,,0.07,weatherlink.com 1.10,2013-02-08 10:05:00,
2013-02-08 05:20:00,42.6,41.0,29.85,West,266,2.0,12.0,95,0.06,,,0.09,weatherlink.com 1.10,2013-02-08 10:20:00,
2013-02-08 05:35:00,41.9,41.0,29.86,WNW,287,6.0,9.0,95,0.05,,,0.10,weatherlink.com 1.10,2013-02-08 10:35:00,
2013-02-08 05:50:00,40.6,39.0,29.87,West,281,3.0,12.0,94,0.04,,,0.10,weatherlink.com 1.10,2013-02-08 10:50:00,
2013-02-08 06:05:00,39.4,38.0,29.88,WNW,284,3.0,11.0,93,0.03,,,0.10,weatherlink.com 1.10,2013-02-08 11:05:00,
2013-02-08 06:20:00,38.7,37.0,29.88,WNW,300,5.0,14.0,93,0.01,,,0.10,weatherlink.com 1.10,2013-02-08 11:20:00,
2013-02-08 06:35:00,38.3,37.0,29.89,West,264,0.0,8.0,93,0.00,,,0.10,weatherlink.com 1.10,2013-02-08 11:35:00,
2013-02-08 06:50:00,38.1,36.0,29.90,WNW,286,4.0,11.0,92,0.00,,,0.10,weatherlink.com 1.10,2013-02-08 11:50:00,
2013-02-08 07:05:00,37.3,36.0,29.91,WNW,293,4.0,13.0,93,0.00,,,0.10,weatherlink.com 1.10,2013-02-08 12:05:00,
2013-02-08 07:20:00,36.9,35.0,29.93,North,360,6.0,10.0,93,0.00,,,0.10,weatherlink.com 1.10,2013-02-08 12:20:00,
2013-02-08 07:36:00,35.9,33.0,29.94,NNE,16,6.0,14.0,89,0.00,,,0.10,weatherlink.com 1.10,2013-02-08 12:36:00,
2013-02-08 07:51:00,35.7,33.0,29.95,WSW,249,1.0,7.0,88,0.00,,,0.10,weatherlink.com 1.10,2013-02-08 12:51:00,
2013-02-08 08:05:00,35.8,33.0,29.95,NW,319,7.0,9.0,88,0.00,,,0.10,weatherlink.com 1.10,2013-02-08 13:05:00,
2013-02-08 08:20:00,36.0,33.0,29.97,West,270,6.0,11.0,88,0.00,,,0.10,weatherlink.com 1.10,2013-02-08 13:20:00,
2013-02-08 08:35:00,35.9,33.0,29.98,NE,56,4.0,10.0,88,0.00,,,0.10,weatherlink.com 1.10,2013-02-08 13:35:00,
2013-02-08 08:51:00,35.8,33.0,29.99,NNE,15,4.0,13.0,88,0.00,,,0.10,weatherlink.com 1.10,2013-02-08 13:51:00,
2013-02-08 09:05:00,35.8,33.0,30.00,WNW,297,3.0,8.0,89,0.00,,,0.10,weatherlink.com 1.10,2013-02-08 14:05:00,
2013-02-08 09:21:00,35.7,33.0,30.01,NW,321,7.0,9.0,88,0.00,,,0.10,weatherlink.com 1.10,2013-02-08 14:21:00,
2013-02-08 09:36:00,35.5,33.0,30.02,WNW,293,2.0,8.0,89,0.00,,,0.10,weatherlink.com 1.10,2013-02-08 14:36:00,
2013-02-08 09:51:00,35.5,33.0,30.02,NW,326,2.0,8.0,89,0.00,,,0.10,weatherlink.com 1.10,2013-02-08 14:51:00,
2013-02-08 10:06:00,35.4,32.0,30.03,NE,51,1.0,10.0,88,0.00,,,0.10,weatherlink.com 1.10,2013-02-08 15:06:00,
2013-02-08 10:21:00,35.5,32.0,30.04,SW,236,3.0,10.0,87,0.00,,,0.10,weatherlink.com 1.10,2013-02-08 15:21:00,
2013-02-08 10:36:00,35.5,32.0,30.05,WSW,250,9.0,11.0,88,0.00,,,0.10,weatherlink.com 1.10,2013-02-08 15:36:00,
2013-02-08 10:51:00,35.4,32.0,30.06,WSW,255,1.0,11.0,87,0.00,,,0.10,weatherlink.com 1.10,2013-02-08 15:51:00,
2013-02-08 11:06:00,35.2,32.0,30.07,NNW,328,4.0,11.0,88,0.00,,,0.10,weatherlink.com 1.10,2013-02-08 16:06:00,
2013-02-08 11:21:00,35.0,32.0,30.07,WNW,299,0.0,13.0,88,0.00,,,0.10,weatherlink.com 1.10,2013-02-08 16:21:00,
2013-02-08 11:36:00,35.0,32.0,30.08,WNW,290,3.0,8.0,87,0.00,,,0.10,weatherlink.com 1.10,2013-02-08 16:36:00,
2013-02-08 11:51:00,35.2,32.0,30.08,NW,325,2.0,8.0,87,0.00,,,0.10,weatherlink.com 1.10,2013-02-08 16:51:00,
2013-02-08 12:06:00,35.5,32.0,30.08,WNW,294,4.0,13.0,86,0.00,,,0.10,weatherlink.com 1.10,2013-02-08 17:06:00,
2013-02-08 12:21:00,35.5,32.0,30.09,WNW,297,5.0,11.0,86,0.00,,,0.10,weatherlink.com 1.10,2013-02-08 17:21:00,
2013-02-08 12:52:00,35.7,31.0,30.09,NW,305,2.0,14.0,84,0.00,,,0.10,weatherlink.com 1.10,2013-02-08 17:52:00,
2013-02-08 13:06:00,35.9,31.0,30.09,WNW,295,2.0,18.0,82,0.00,,,0.10,weatherlink.com 1.10,2013-02-08 18:06:00,
2013-02-08 13:21:00,36.2,31.0,30.09,NNW,335,4.0,14.0,81,0.00,,,0.10,weatherlink.com 1.10,2013-02-08 18:21:00,
2013-02-08 13:36:00,35.9,31.0,30.10,NW,305,2.0,9.0,82,0.00,,,0.10,weatherlink.com 1.10,2013-02-08 18:36:00,
2013-02-08 13:52:00,35.7,31.0,30.11,WNW,293,3.0,10.0,82,0.00,,,0.10,weatherlink.com 1.10,2013-02-08 18:52:00,
2013-02-08 14:07:00,35.7,30.0,30.11,NNE,21,2.0,12.0,80,0.00,,,0.10,weatherlink.com 1.10,2013-02-08 19:07:00,
2013-02-08 14:21:00,35.8,30.0,30.12,ENE,63,9.0,10.0,80,0.00,,,0.10,weatherlink.com 1.10,2013-02-08 19:21:00,
2013-02-08 14:36:00,35.7,30.0,30.12,WNW,285,3.0,11.0,80,0.00,,,0.10,weatherlink.com 1.10,2013-02-08 19:36:00,
2013-02-08 14:52:00,35.7,30.0,30.12,NE,46,2.0,9.0,79,0.00,,,0.10,weatherlink.com 1.10,2013-02-08 19:52:00,
2013-02-08 15:06:00,36.0,29.0,30.12,NW,309,4.0,10.0,77,0.00,,,0.10,weatherlink.com 1.10,2013-02-08 20:06:00,
2013-02-08 15:21:00,36.0,30.0,30.13,SW,232,1.0,8.0,78,0.00,,,0.10,weatherlink.com 1.10,2013-02-08 20:21:00,
2013-02-08 15:37:00,35.9,30.0,30.14,NNE,23,3.0,11.0,78,0.00,,,0.10,weatherlink.com 1.10,2013-02-08 20:37:00,
2013-02-08 15:51:00,35.7,29.0,30.15,North,349,2.0,8.0,78,0.00,,,0.10,weatherlink.com 1.10,2013-02-08 20:51:00,
2013-02-08 16:06:00,35.8,30.0,30.16,North,359,0.0,5.0,78,0.00,,,0.10,weatherlink.com 1.10,2013-02-08 21:06:00,
2013-02-08 16:22:00,35.4,29.0,30.17,NE,54,4.0,12.0,78,0.00,,,0.10,weatherlink.com 1.10,2013-02-08 21:22:00,
2013-02-08 16:37:00,35.3,29.0,30.17,WNW,295,7.0,9.0,78,0.00,,,0.10,weatherlink.com 1.10,2013-02-08 21:37:00,
2013-02-08 16:52:00,35.3,29.0,30.18,NE,51,1.0,8.0,78,0.00,,,0.10,weatherlink.com 1.10,2013-02-08 21:52:00,
2013-02-08 17:07:00,35.2,29.0,30.19,NNE,15,3.0,5.0,78,0.00,,,0.10,weatherlink.com 1.10,2013-02-08 22:07:00,
2013-02-08 17:22:00,35.1,29.0,30.20,North,353,1.0,7.0,78,0.00,,,0.10,weatherlink.com 1.10,2013-02-08 22:22:00,
2013-02-08 17:37:00,34.9,29.0,30.20,WNW,291,3.0,7.0,78,0.00,,,0.10,weatherlink.com 1.10,2013-02-08 22:37:00,
2013-02-08 17:52:00,34.9,29.0,30.21,NNW,345,1.0,4.0,79,0.00,,,0.10,weatherlink.com 1.10,2013-02-08 22:52:00,
2013-02-08 18:07:00,34.8,29.0,30.22,NNW,327,2.0,6.0,79,0.00,,,0.10,weatherlink.com 1.10,2013-02-08 23:07:00,
2013-02-08 18:22:00,34.7,29.0,30.23,WSW,255,1.0,7.0,79,0.00,,,0.10,weatherlink.com 1.10,2013-02-08 23:22:00,
2013-02-08 18:37:00,34.7,29.0,30.24,WNW,295,2.0,4.0,79,0.00,,,0.10,weatherlink.com 1.10,2013-02-08 23:37:00,
2013-02-08 18:52:00,34.7,29.0,30.24,North,359,0.0,3.0,79,0.00,,,0.10,weatherlink.com 1.10,2013-02-08 23:52:00,
2013-02-08 19:07:00,34.7,29.0,30.25,NW,321,1.0,5.0,79,0.00,,,0.10,weatherlink.com 1.10,2013-02-09 00:07:00,
2013-02-08 19:22:00,34.6,29.0,30.26,SSW,203,0.0,4.0,79,0.00,,,0.10,weatherlink.com 1.10,2013-02-09 00:22:00,
2013-02-08 19:37:00,34.5,28.0,30.26,West,276,1.0,7.0,76,0.00,,,0.10,weatherlink.com 1.10,2013-02-09 00:37:00,
2013-02-08 19:52:00,34.4,28.0,30.27,WSW,256,1.0,9.0,77,0.00,,,0.10,weatherlink.com 1.10,2013-02-09 00:52:00,
2013-02-08 20:07:00,34.4,28.0,30.28,NNW,345,2.0,8.0,77,0.00,,,0.10,weatherlink.com 1.10,2013-02-09 01:07:00,
2013-02-08 20:22:00,34.4,28.0,30.29,WNW,302,5.0,6.0,78,0.00,,,0.10,weatherlink.com 1.10,2013-02-09 01:22:00,
2013-02-08 20:37:00,34.2,28.0,30.29,NE,51,1.0,6.0,79,0.00,,,0.10,weatherlink.com 1.10,2013-02-09 01:37:00,
2013-02-08 20:53:00,34.0,27.0,30.29,SW,229,2.0,14.0,76,0.00,,,0.10,weatherlink.com 1.10,2013-02-09 01:53:00,
2013-02-08 21:07:00,33.8,27.0,30.30,West,277,0.0,7.0,75,0.00,,,0.10,weatherlink.com 1.10,2013-02-09 02:07:00,
2013-02-08 21:22:00,33.6,26.0,30.30,ENE,65,1.0,7.0,75,0.00,,,0.10,weatherlink.com 1.10,2013-02-09 02:22:00,
2013-02-08 21:38:00,33.3,26.0,30.31,WNW,301,2.0,8.0,74,0.00,,,0.10,weatherlink.com 1.10,2013-02-09 02:38:00,
2013-02-08 21:53:00,33.2,26.0,30.31,NNW,335,0.0,4.0,75,0.00,,,0.10,weatherlink.com 1.10,2013-02-09 02:53:00,
2013-02-08 22:07:00,33.1,26.0,30.32,NW,306,2.0,4.0,76,0.00,,,0.10,weatherlink.com 1.10,2013-02-09 03:07:00,
2013-02-08 22:24:00,32.8,25.0,30.32,WSW,238,1.0,8.0,74,0.00,,,0.10,weatherlink.com 1.10,2013-02-09 03:24:00,
2013-02-08 22:38:00,32.5,25.0,30.32,NNE,29,4.0,6.0,73,0.00,,,0.10,weatherlink.com 1.10,2013-02-09 03:38:00,
2013-02-08 22:53:00,32.4,25.0,30.32,WNW,291,2.0,5.0,74,0.00,,,0.10,weatherlink.com 1.10,2013-02-09 03:53:00,
2013-02-08 23:07:00,32.4,25.0,30.32,SE,132,1.0,7.0,74,0.00,,,0.10,weatherlink.com 1.10,2013-02-09 04:07:00,
2013-02-08 23:23:00,32.3,25.0,30.32,West,271,0.0,7.0,74,0.00,,,0.10,weatherlink.com 1.10,2013-02-09 04:23:00,
2013-02-08 23:38:00,32.2,25.0,30.32,NE,49,0.0,5.0,74,0.00,,,0.10,weatherlink.com 1.10,2013-02-09 04:38:00,
2013-02-08 23:53:00,32.0,25.0,30.32,SSW,192,0.0,3.0,74,0.00,,,0.10,weatherlink.com 1.10,2013-02-09 04:53:00,